Airfield :
LOGIN :

Register | Disclaimer

   EN    FR    IT 

 










Legend :    VFR   Marginal VFR   IFR   Intensive IFR   Very Intensive IFR
Visi :
Ceiling :
>= 8 km
>= 3000ft
5 to 8 km
1000 to 3000 ft
1500m to 5 km
500 to 1000 ft
800 to 1500m
200 to 500 ft
< 800m
< 200 ft
Symbols :   Thunderstorms  Fog  Heavy snow  Heavy precipitations  Wind > 20 kt
SIGMETs :     Misc.  Thunderstorms  Icing  Turbulence  Mountain Waves  Volcanic Ashes






- Airport Elevation : 22 ft
- IATA code : LDY


EGAE - Londonderry Eglington

CURRENT METAR :
  • 101520Z 26017KT 9999 VCSH FEW010 SCT018 07/05 Q0989

EXPIRED METARs :
  • 101450Z 26017KT 9999 SCT014 SCT028 07/06 Q0989
  • 101420Z 26021KT 7000 -RADZ BKN014 BKN028 07/05 Q0989
  • 101350Z 26018KT 9999 -RADZ BKN016 BKN028 07/06 Q0988
  • 101320Z 27015KT 9999 -RA BKN016 BKN025 08/06 Q0988
  • 101250Z 27019G29KT 9999 -RA BKN016 BKN025 08/07 Q0988

TAF TAF EGAE
Valid from the 10 at 15:00 until the 10 at 21:00 UTC


101402Z 1015/1021 27020G30KT 9999 SCT025
TEMPO 1015/1021 7000 SHRA
PROB30
TEMPO 1018/1021 3000 +SHRAGS BKN014CB



MET'MAP, your aeronautical weather chart ! - Copyright ORBIFLY December 2007 - Disclaimer

ORBIFLY MET'MAP TEAM :

Programming & Development : Alexandra Zaïnal
Concept & original design : Baudouin d'Aumeries
Assistance for programming : Marc-Olivier Méhu
Technical & hardware support : Manuel Goepfert

Contact : metmap@orbifly.com




SOURCES & CREDITS :

   NOAA